Time;durP1;ratioP1;P1;durP2;ratioP2;P2;SDS_P1;SDS_P2;PMS_P1;PMS_P2;Temp;Humidity;BMP_temperature;BMP_pressure;BME280_temperature;BME280_humidity;BME280_pressure;Samples;Min_cycle;Max_cycle;Signal;HPM_P1;HPM_P2
2023/04/13 00:00:20;;;;;;;;;;;;;;;;;;5049797;28;19966;-61
2023/04/13 00:02:52;;;;;;;;;;;;;;;;;;5054560;28;19920;-63
2023/04/13 00:05:19;;;;;;;;;;;;;;;;;;5047132;28;20003;-62
2023/04/13 00:07:47;;;;;;;;;;;;;;;;;;5054120;28;19920;-62
2023/04/13 00:10:14;;;;;;;;;;;;;;;;;;5047029;28;19928;-63
2023/04/13 00:12:41;;;;;;;;;;;;;;;;;;5054752;28;19920;-62
2023/04/13 00:15:08;;;;;;;;;;;;;;;;;;5049699;28;20003;-61
2023/04/13 00:17:36;;;;;;;;;;;;;;;;;;5054044;28;19921;-62
2023/04/13 00:20:07;;;;;;;;;;;;;;;;;;5048466;28;20330;-61
2023/04/13 00:22:33;;;;;;;;;;;;;;;;;;5054461;28;20086;-62
2023/04/13 00:25:00;;;;;;;;;;;;;;;;;;5051797;28;19921;-61
2023/04/13 00:27:29;;;;;;;;;;;;;;;;;;5054243;28;19921;-59
2023/04/13 00:29:56;;;;;;;;;;;;;;;;;;5054547;28;20330;-62
2023/04/13 00:32:23;;;;;;;;;;;;;;;;;;5045869;28;19921;-62
2023/04/13 00:34:50;;;;;;;;;;;;;;;;;;5053933;28;20345;-60
2023/04/13 00:37:17;;;;;;;;;;;;;;;;;;5049610;28;19956;-62
2023/04/13 00:39:45;;;;;;;;;;;;;;;;;;5054171;28;20306;-61
2023/04/13 00:42:11;;;;;;;;;;;;;;;;;;5049657;28;19920;-61
2023/04/13 00:44:38;;;;;;;;;;;;;;;;;;5049393;28;19921;-61
2023/04/13 00:47:05;;;;;;;;;;;;;;;;;;5053622;28;19921;-61
2023/04/13 00:49:33;;;;;;;;;;;;;;;;;;5049447;28;19951;-62
2023/04/13 00:52:00;;;;;;;;;;;;;;;;;;5053829;28;19929;-62
2023/04/13 00:54:28;;;;;;;;;;;;;;;;;;5049455;28;20300;-61
2023/04/13 00:56:56;;;;;;;;;;;;;;;;;;5050056;28;19921;-62
2023/04/13 00:59:23;;;;;;;;;;;;;;;;;;5050144;28;19920;-61
2023/04/13 01:01:55;;;;;;;;;;;;;;;;;;5053038;28;19966;-60
2023/04/13 01:04:22;;;;;;;;;;;;;;;;;;5049669;28;19929;-62
2023/04/13 01:06:50;;;;;;;;;;;;;;;;;;5052848;28;19924;-61
2023/04/13 01:09:17;;;;;;;;;;;;;;;;;;5052788;28;19929;-61
2023/04/13 01:11:43;;;;;;;;;;;;;;;;;;5049567;28;19921;-61
2023/04/13 01:14:11;;;;;;;;;;;;;;;;;;5052979;28;19928;-60
2023/04/13 01:16:38;;;;;;;;;;;;;;;;;;5049410;28;20321;-62
2023/04/13 01:19:04;;;;;;;;;;;;;;;;;;5051577;28;19921;-61
2023/04/13 01:21:31;;;;;;;;;;;;;;;;;;5048263;28;19968;-61
2023/04/13 01:23:58;;;;;;;;;;;;;;;;;;5053028;28;19978;-61
2023/04/13 01:26:26;;;;;;;;;;;;;;;;;;5049808;28;19963;-62
2023/04/13 01:28:53;;;;;;;;;;;;;;;;;;5048663;28;19921;-61
2023/04/13 01:31:19;;;;;;;;;;;;;;;;;;5045431;28;19932;-62
2023/04/13 01:33:46;;;;;;;;;;;;;;;;;;5052634;28;20493;-62
2023/04/13 01:36:14;;;;;;;;;;;;;;;;;;5047477;28;19924;-62
2023/04/13 01:38:41;;;;;;;;;;;;;;;;;;5052825;28;19944;-61
2023/04/13 01:41:08;;;;;;;;;;;;;;;;;;5044928;28;19921;-62
2023/04/13 01:43:35;;;;;;;;;;;;;;;;;;5049146;28;19966;-61
2023/04/13 01:46:03;;;;;;;;;;;;;;;;;;5046518;28;19920;-61
2023/04/13 01:48:30;;;;;;;;;;;;;;;;;;5052610;28;20117;-62
2023/04/13 01:50:57;;;;;;;;;;;;;;;;;;5045598;28;20006;-61
2023/04/13 01:53:24;;;;;;;;;;;;;;;;;;5048579;28;19920;-62
2023/04/13 01:55:52;;;;;;;;;;;;;;;;;;5052518;28;19921;-62
2023/04/13 01:58:18;;;;;;;;;;;;;;;;;;5048161;28;19921;-62
2023/04/13 02:00:45;;;;;;;;;;;;;;;;;;5048691;28;19967;-61
2023/04/13 02:03:14;;;;;;;;;;;;;;;;;;5048318;28;19921;-61
2023/04/13 02:05:41;;;;;;;;;;;;;;;;;;5052760;28;19924;-61
2023/04/13 02:08:07;;;;;;;;;;;;;;;;;;5049036;28;20286;-62
2023/04/13 02:10:35;;;;;;;;;;;;;;;;;;5047874;28;19921;-62
2023/04/13 02:13:03;;;;;;;;;;;;;;;;;;5046937;28;20380;-63
2023/04/13 02:15:30;;;;;;;;;;;;;;;;;;5045404;28;19924;-63
2023/04/13 02:17:57;;;;;;;;;;;;;;;;;;5048395;28;19921;-62
2023/04/13 02:20:24;;;;;;;;;;;;;;;;;;5052286;28;19921;-62
2023/04/13 02:22:51;;;;;;;;;;;;;;;;;;5051855;28;19924;-62
2023/04/13 02:25:18;;;;;;;;;;;;;;;;;;5051997;28;19921;-62
2023/04/13 02:27:45;;;;;;;;;;;;;;;;;;5048373;28;19974;-63
2023/04/13 02:30:12;;;;;;;;;;;;;;;;;;5047779;28;19927;-62
2023/04/13 02:32:39;;;;;;;;;;;;;;;;;;5052082;28;20011;-63
2023/04/13 02:35:07;;;;;;;;;;;;;;;;;;5046936;28;20382;-62
2023/04/13 02:37:38;;;;;;;;;;;;;;;;;;5051840;28;19974;-63
2023/04/13 02:40:07;;;;;;;;;;;;;;;;;;5048106;28;19943;-63
2023/04/13 02:42:34;;;;;;;;;;;;;;;;;;5052260;28;20310;-62
2023/04/13 02:45:01;;;;;;;;;;;;;;;;;;5049793;28;19925;-63
2023/04/13 02:47:28;;;;;;;;;;;;;;;;;;5048030;28;19920;-62
2023/04/13 02:49:55;;;;;;;;;;;;;;;;;;5046148;28;19925;-63
2023/04/13 02:52:22;;;;;;;;;;;;;;;;;;5051777;28;19920;-62
2023/04/13 02:54:53;;;;;;;;;;;;;;;;;;5046773;28;20450;-62
2023/04/13 02:57:19;;;;;;;;;;;;;;;;;;5051486;28;19921;-62
2023/04/13 02:59:46;;;;;;;;;;;;;;;;;;5042802;28;19921;-62
2023/04/13 03:02:13;;;;;;;;;;;;;;;;;;5051808;28;19921;-63
2023/04/13 03:04:40;;;;;;;;;;;;;;;;;;5046824;28;19974;-63
2023/04/13 03:07:08;;;;;;;;;;;;;;;;;;5054180;28;19986;-61
2023/04/13 03:09:35;;;;;;;;;;;;;;;;;;5047503;28;19943;-63
2023/04/13 03:12:02;;;;;;;;;;;;;;;;;;5052206;28;20042;-60
2023/04/13 03:14:32;;;;;;;;;;;;;;;;;;5042933;28;19925;-61
2023/04/13 03:16:58;;;;;;;;;;;;;;;;;;5048392;28;19974;-62
2023/04/13 03:19:25;;;;;;;;;;;;;;;;;;5049600;28;19921;-62
2023/04/13 03:21:52;;;;;;;;;;;;;;;;;;5051740;28;19921;-62
2023/04/13 03:24:19;;;;;;;;;;;;;;;;;;5046839;28;20353;-60
2023/04/13 03:26:46;;;;;;;;;;;;;;;;;;5051885;28;19967;-63
2023/04/13 03:29:13;;;;;;;;;;;;;;;;;;5048032;28;19929;-63
2023/04/13 03:31:40;;;;;;;;;;;;;;;;;;5053661;28;19974;-62
2023/04/13 03:34:07;;;;;;;;;;;;;;;;;;5049802;28;19983;-62
2023/04/13 03:36:34;;;;;;;;;;;;;;;;;;5055060;28;19920;-61
2023/04/13 03:39:01;;;;;;;;;;;;;;;;;;5054210;28;19920;-63
2023/04/13 03:41:28;;;;;;;;;;;;;;;;;;5051992;28;19921;-62
2023/04/13 03:43:55;;;;;;;;;;;;;;;;;;5050362;28;19975;-64
2023/04/13 03:46:21;;;;;;;;;;;;;;;;;;5051373;28;19931;-62
2023/04/13 03:48:48;;;;;;;;;;;;;;;;;;5053207;28;19925;-62
2023/04/13 03:51:15;;;;;;;;;;;;;;;;;;5054959;28;19936;-61
2023/04/13 03:53:42;;;;;;;;;;;;;;;;;;5053970;28;19929;-63
2023/04/13 03:56:09;;;;;;;;;;;;;;;;;;5050956;28;19951;-62
2023/04/13 03:58:36;;;;;;;;;;;;;;;;;;5050022;28;19920;-61
2023/04/13 04:01:03;;;;;;;;;;;;;;;;;;5053584;28;19925;-61
2023/04/13 04:03:30;;;;;;;;;;;;;;;;;;5054586;28;20283;-61
2023/04/13 04:05:57;;;;;;;;;;;;;;;;;;5054255;28;19947;-62
2023/04/13 04:08:24;;;;;;;;;;;;;;;;;;5053666;28;19920;-62
2023/04/13 04:10:50;;;;;;;;;;;;;;;;;;5048096;28;19974;-62
2023/04/13 04:13:17;;;;;;;;;;;;;;;;;;5048194;28;19925;-61
2023/04/13 04:15:44;;;;;;;;;;;;;;;;;;5049593;28;19924;-62
2023/04/13 04:18:11;;;;;;;;;;;;;;;;;;5047694;28;20019;-62
2023/04/13 04:20:38;;;;;;;;;;;;;;;;;;5054355;28;19991;-62
2023/04/13 04:23:08;;;;;;;;;;;;;;;;;;5051439;28;20464;-62
2023/04/13 04:25:36;;;;;;;;;;;;;;;;;;5049935;28;19920;-62
2023/04/13 04:28:03;;;;;;;;;;;;;;;;;;5047850;28;20360;-63
2023/04/13 04:30:32;;;;;;;;;;;;;;;;;;5050160;28;19951;-61
2023/04/13 04:33:00;;;;;;;;;;;;;;;;;;5048198;28;19927;-61
2023/04/13 04:35:32;;;;;;;;;;;;;;;;;;5052936;28;19924;-61
2023/04/13 04:37:59;;;;;;;;;;;;;;;;;;5050265;28;19927;-60
2023/04/13 04:40:26;;;;;;;;;;;;;;;;;;5048344;28;19920;-61
2023/04/13 04:42:53;;;;;;;;;;;;;;;;;;5050616;28;19960;-60
2023/04/13 04:45:20;;;;;;;;;;;;;;;;;;5049178;28;19964;-60
2023/04/13 04:47:49;;;;;;;;;;;;;;;;;;5047627;28;20315;-58
2023/04/13 04:50:16;;;;;;;;;;;;;;;;;;5054144;28;19967;-61
2023/04/13 04:52:43;;;;;;;;;;;;;;;;;;5050039;28;19929;-61
2023/04/13 04:55:10;;;;;;;;;;;;;;;;;;5048347;28;19979;-61
2023/04/13 04:57:37;;;;;;;;;;;;;;;;;;5049967;28;19921;-61
2023/04/13 05:00:08;;;;;;;;;;;;;;;;;;5048228;28;19921;-58
2023/04/13 05:02:35;;;;;;;;;;;;;;;;;;5046722;28;19929;-61
2023/04/13 05:05:02;;;;;;;;;;;;;;;;;;5051905;28;19924;-61
2023/04/13 05:07:29;;;;;;;;;;;;;;;;;;5048692;28;19974;-61
2023/04/13 05:09:56;;;;;;;;;;;;;;;;;;5048686;28;19931;-62
2023/04/13 05:12:23;;;;;;;;;;;;;;;;;;5051650;28;19920;-60
2023/04/13 05:14:50;;;;;;;;;;;;;;;;;;5045012;28;20350;-61
2023/04/13 05:17:17;;;;;;;;;;;;;;;;;;5051549;28;19920;-61
2023/04/13 05:19:44;;;;;;;;;;;;;;;;;;5049170;28;20394;-58
2023/04/13 05:22:11;;;;;;;;;;;;;;;;;;5052916;28;19920;-66
2023/04/13 05:24:38;;;;;;;;;;;;;;;;;;5050829;28;19928;-65
2023/04/13 05:27:06;;;;;;;;;;;;;;;;;;5049977;28;19920;-65
2023/04/13 05:29:34;;;;;;;;;;;;;;;;;;5049117;28;19928;-66
2023/04/13 05:32:01;;;;;;;;;;;;;;;;;;5051780;28;19994;-67
2023/04/13 05:34:27;;;;;;;;;;;;;;;;;;5047730;28;19982;-67
2023/04/13 05:36:56;;;;;;;;;;;;;;;;;;5052512;28;20326;-65
2023/04/13 05:39:23;;;;;;;;;;;;;;;;;;5051173;28;19935;-67
2023/04/13 05:41:50;;;;;;;;;;;;;;;;;;5049002;28;19943;-66
2023/04/13 05:44:17;;;;;;;;;;;;;;;;;;5045088;28;19928;-66
2023/04/13 05:46:44;;;;;;;;;;;;;;;;;;5048463;28;20023;-65
2023/04/13 05:49:11;;;;;;;;;;;;;;;;;;5046916;28;19920;-65
2023/04/13 05:51:38;;;;;;;;;;;;;;;;;;5052221;28;19924;-65
2023/04/13 05:54:05;;;;;;;;;;;;;;;;;;5035707;28;19948;-61
2023/04/13 05:56:33;;;;;;;;;;;;;;;;;;5048292;28;19963;-60
2023/04/13 05:59:00;;;;;;;;;;;;;;;;;;5044945;28;19928;-62
2023/04/13 06:01:28;;;;;;;;;;;;;;;;;;5048808;28;19920;-60
2023/04/13 06:03:55;;;;;;;;;;;;;;;;;;5047012;28;20398;-61
2023/04/13 06:06:22;;;;;;;;;;;;;;;;;;5051723;28;20463;-61
2023/04/13 06:08:49;;;;;;;;;;;;;;;;;;5049272;28;20429;-65
2023/04/13 06:11:16;;;;;;;;;;;;;;;;;;5047188;28;19921;-63
2023/04/13 06:13:43;;;;;;;;;;;;;;;;;;5046053;28;19925;-63
2023/04/13 06:16:10;;;;;;;;;;;;;;;;;;5047251;28;20003;-61
2023/04/13 06:18:37;;;;;;;;;;;;;;;;;;5045921;28;19920;-59
2023/04/13 06:21:04;;;;;;;;;;;;;;;;;;5051904;28;19920;-62
2023/04/13 06:23:30;;;;;;;;;;;;;;;;;;5045933;28;20268;-62
2023/04/13 06:25:57;;;;;;;;;;;;;;;;;;5048832;28;19920;-61
2023/04/13 06:28:28;;;;;;;;;;;;;;;;;;5045632;28;19921;-61
2023/04/13 06:30:54;;;;;;;;;;;;;;;;;;5052325;28;20354;-62
2023/04/13 06:33:22;;;;;;;;;;;;;;;;;;5048963;28;19931;-59
2023/04/13 06:35:50;;;;;;;;;;;;;;;;;;5051209;28;20326;-57
2023/04/13 06:38:17;;;;;;;;;;;;;;;;;;5048050;28;20489;-60
2023/04/13 06:40:44;;;;;;;;;;;;;;;;;;5044728;28;20046;-58
2023/04/13 06:43:11;;;;;;;;;;;;;;;;;;5046944;28;19966;-61
2023/04/13 06:45:38;;;;;;;;;;;;;;;;;;5046942;28;19921;-61
2023/04/13 06:48:05;;;;;;;;;;;;;;;;;;5043605;28;19975;-60
2023/04/13 06:50:32;;;;;;;;;;;;;;;;;;5051003;28;19931;-61
2023/04/13 06:52:59;;;;;;;;;;;;;;;;;;5047166;28;19924;-62
2023/04/13 06:55:26;;;;;;;;;;;;;;;;;;5046838;28;19925;-61
2023/04/13 06:57:53;;;;;;;;;;;;;;;;;;5044135;28;19924;-64
2023/04/13 07:00:20;;;;;;;;;;;;;;;;;;5042959;28;19928;-63
2023/04/13 07:02:47;;;;;;;;;;;;;;;;;;5047447;28;19931;-63
2023/04/13 07:05:14;;;;;;;;;;;;;;;;;;5054002;28;19933;-60
2023/04/13 07:07:40;;;;;;;;;;;;;;;;;;5052331;28;19951;-62
2023/04/13 07:10:07;;;;;;;;;;;;;;;;;;5046603;28;19966;-58
2023/04/13 07:12:34;;;;;;;;;;;;;;;;;;5051155;28;19971;-60
2023/04/13 07:15:01;;;;;;;;;;;;;;;;;;5048661;28;20351;-61
2023/04/13 07:17:28;;;;;;;;;;;;;;;;;;5049979;28;20431;-60
2023/04/13 07:19:55;;;;;;;;;;;;;;;;;;5051406;28;19920;-60
2023/04/13 07:22:22;;;;;;;;;;;;;;;;;;5052350;28;19925;-62
2023/04/13 07:24:49;;;;;;;;;;;;;;;;;;5044183;28;20366;-63
2023/04/13 07:27:16;;;;;;;;;;;;;;;;;;5053552;28;19920;-64
2023/04/13 07:29:42;;;;;;;;;;;;;;;;;;5042301;28;19967;-65
2023/04/13 07:32:10;;;;;;;;;;;;;;;;;;5054863;28;19920;-64
2023/04/13 07:34:37;;;;;;;;;;;;;;;;;;5049660;28;19952;-63
2023/04/13 07:37:04;;;;;;;;;;;;;;;;;;5055034;28;19924;-63
2023/04/13 07:39:32;;;;;;;;;;;;;;;;;;5052066;28;19920;-63
2023/04/13 07:41:59;;;;;;;;;;;;;;;;;;5050552;28;19920;-62
2023/04/13 07:44:25;;;;;;;;;;;;;;;;;;5048914;28;19929;-63
2023/04/13 07:46:52;;;;;;;;;;;;;;;;;;5050505;28;19924;-64
2023/04/13 07:49:21;;;;;;;;;;;;;;;;;;5046279;28;19924;-62
2023/04/13 07:51:48;;;;;;;;;;;;;;;;;;5053622;28;19921;-62
2023/04/13 07:54:15;;;;;;;;;;;;;;;;;;5049998;28;19988;-61
2023/04/13 07:56:42;;;;;;;;;;;;;;;;;;5041868;28;19924;-61
2023/04/13 07:59:09;;;;;;;;;;;;;;;;;;5052645;28;20341;-62
2023/04/13 08:01:36;;;;;;;;;;;;;;;;;;5045827;28;19921;-62
2023/04/13 08:04:03;;;;;;;;;;;;;;;;;;5054098;28;19970;-63
2023/04/13 08:06:30;;;;;;;;;;;;;;;;;;5050894;28;19924;-63
2023/04/13 08:08:57;;;;;;;;;;;;;;;;;;5051405;28;19921;-62
2023/04/13 08:11:24;;;;;;;;;;;;;;;;;;5051170;28;19925;-61
2023/04/13 08:13:51;;;;;;;;;;;;;;;;;;5045813;28;19924;-63
2023/04/13 08:16:18;;;;;;;;;;;;;;;;;;5048734;28;19942;-63
2023/04/13 08:18:44;;;;;;;;;;;;;;;;;;5045713;28;19987;-61
2023/04/13 08:21:11;;;;;;;;;;;;;;;;;;5050926;28;19921;-63
2023/04/13 08:23:38;;;;;;;;;;;;;;;;;;5046241;28;19966;-63
2023/04/13 08:26:05;;;;;;;;;;;;;;;;;;5048952;28;19925;-63
2023/04/13 08:28:32;;;;;;;;;;;;;;;;;;5051073;28;19974;-63
2023/04/13 08:30:59;;;;;;;;;;;;;;;;;;5048716;28;19924;-61
2023/04/13 08:33:26;;;;;;;;;;;;;;;;;;5048718;28;20326;-67
2023/04/13 08:35:53;;;;;;;;;;;;;;;;;;5052244;28;20375;-64
2023/04/13 08:38:20;;;;;;;;;;;;;;;;;;5047393;28;20386;-62
2023/04/13 08:40:47;;;;;;;;;;;;;;;;;;5048511;28;19932;-62
2023/04/13 08:43:14;;;;;;;;;;;;;;;;;;5047356;28;19920;-62
2023/04/13 08:45:41;;;;;;;;;;;;;;;;;;5048442;28;19944;-64
2023/04/13 08:48:08;;;;;;;;;;;;;;;;;;5054020;28;19928;-64
2023/04/13 08:50:35;;;;;;;;;;;;;;;;;;5045789;28;19924;-64
2023/04/13 08:53:02;;;;;;;;;;;;;;;;;;5048984;28;19921;-63
2023/04/13 08:55:29;;;;;;;;;;;;;;;;;;5048101;28;19975;-63
2023/04/13 08:57:56;;;;;;;;;;;;;;;;;;5048414;28;20346;-63
2023/04/13 09:00:23;;;;;;;;;;;;;;;;;;5048509;28;20272;-61
2023/04/13 09:02:53;;;;;;;;;;;;;;;;;;5050187;28;19929;-62
2023/04/13 09:05:20;;;;;;;;;;;;;;;;;;5048275;28;19942;-62
2023/04/13 09:07:47;;;;;;;;;;;;;;;;;;5050873;28;19924;-63
2023/04/13 09:10:15;;;;;;;;;;;;;;;;;;5041423;28;20015;-63
2023/04/13 09:12:42;;;;;;;;;;;;;;;;;;5051213;28;19948;-64
2023/04/13 09:15:09;;;;;;;;;;;;;;;;;;5042458;28;20284;-60
2023/04/13 09:17:36;;;;;;;;;;;;;;;;;;5051653;28;20391;-62
2023/04/13 09:20:08;;;;;;;;;;;;;;;;;;5048828;28;20027;-64
2023/04/13 09:22:35;;;;;;;;;;;;;;;;;;5052081;28;20019;-65
2023/04/13 09:25:02;;;;;;;;;;;;;;;;;;5046219;28;19975;-62
2023/04/13 09:27:29;;;;;;;;;;;;;;;;;;5052083;28;19925;-63
2023/04/13 09:29:57;;;;;;;;;;;;;;;;;;5041685;28;19921;-63
2023/04/13 09:32:24;;;;;;;;;;;;;;;;;;5051522;28;19928;-65
2023/04/13 09:34:51;;;;;;;;;;;;;;;;;;5041868;28;19928;-64
2023/04/13 09:37:18;;;;;;;;;;;;;;;;;;5052488;28;20391;-63
2023/04/13 09:39:45;;;;;;;;;;;;;;;;;;5050192;28;19921;-63
2023/04/13 09:42:12;;;;;;;;;;;;;;;;;;5053992;28;19925;-61
2023/04/13 09:44:39;;;;;;;;;;;;;;;;;;5041894;28;20394;-62
2023/04/13 09:47:07;;;;;;;;;;;;;;;;;;5045847;28;20635;-63
2023/04/13 09:49:34;;;;;;;;;;;;;;;;;;5049726;28;20065;-60
2023/04/13 09:52:01;;;;;;;;;;;;;;;;;;5050243;28;20063;-62
2023/04/13 09:54:28;;;;;;;;;;;;;;;;;;5049254;28;19920;-63
2023/04/13 09:56:56;;;;;;;;;;;;;;;;;;5050509;28;19920;-63
2023/04/13 09:59:23;;;;;;;;;;;;;;;;;;5046097;28;19924;-63
2023/04/13 10:01:50;;;;;;;;;;;;;;;;;;5049542;28;19966;-61
2023/04/13 10:04:17;;;;;;;;;;;;;;;;;;5048332;28;19927;-62
2023/04/13 10:06:45;;;;;;;;;;;;;;;;;;5050356;28;19951;-63
2023/04/13 10:09:12;;;;;;;;;;;;;;;;;;5046836;28;19924;-63
2023/04/13 10:11:39;;;;;;;;;;;;;;;;;;5051089;28;19921;-62
2023/04/13 10:14:08;;;;;;;;;;;;;;;;;;5047581;28;19931;-62
2023/04/13 10:16:36;;;;;;;;;;;;;;;;;;5049794;28;19927;-63
2023/04/13 10:19:03;;;;;;;;;;;;;;;;;;5051560;28;19921;-67
2023/04/13 10:21:32;;;;;;;;;;;;;;;;;;5046699;28;19928;-67
2023/04/13 10:23:59;;;;;;;;;;;;;;;;;;5051497;28;19970;-66
2023/04/13 10:26:25;;;;;;;;;;;;;;;;;;5046789;28;19967;-67
2023/04/13 10:28:52;;;;;;;;;;;;;;;;;;5047148;28;20034;-66
2023/04/13 10:31:20;;;;;;;;;;;;;;;;;;5051328;28;19920;-61
2023/04/13 10:33:47;;;;;;;;;;;;;;;;;;5040531;28;20396;-64
2023/04/13 10:36:14;;;;;;;;;;;;;;;;;;5050717;28;19920;-61
2023/04/13 10:38:41;;;;;;;;;;;;;;;;;;5046024;28;19966;-61
2023/04/13 10:41:08;;;;;;;;;;;;;;;;;;5051230;28;19921;-63
2023/04/13 10:43:35;;;;;;;;;;;;;;;;;;5046753;28;19966;-61
2023/04/13 10:46:01;;;;;;;;;;;;;;;;;;5048537;28;19966;-63
2023/04/13 10:48:28;;;;;;;;;;;;;;;;;;5050135;28;19921;-62
2023/04/13 10:50:55;;;;;;;;;;;;;;;;;;5046776;28;19974;-62
2023/04/13 10:53:22;;;;;;;;;;;;;;;;;;5051096;28;19970;-63
2023/04/13 10:55:49;;;;;;;;;;;;;;;;;;5046993;28;19920;-64
2023/04/13 10:58:17;;;;;;;;;;;;;;;;;;5050848;28;20121;-63
2023/04/13 11:00:43;;;;;;;;;;;;;;;;;;5046633;28;19924;-63
2023/04/13 11:03:10;;;;;;;;;;;;;;;;;;5050953;28;19929;-64
2023/04/13 11:05:37;;;;;;;;;;;;;;;;;;5043840;28;19925;-63
2023/04/13 11:08:04;;;;;;;;;;;;;;;;;;5047830;28;19924;-63
2023/04/13 11:10:31;;;;;;;;;;;;;;;;;;5048736;28;20027;-64
2023/04/13 11:12:58;;;;;;;;;;;;;;;;;;5051132;28;20329;-63
2023/04/13 11:15:25;;;;;;;;;;;;;;;;;;5044401;28;20379;-63
2023/04/13 11:17:51;;;;;;;;;;;;;;;;;;5050791;28;20334;-61
2023/04/13 11:20:18;;;;;;;;;;;;;;;;;;5045496;28;19921;-62
2023/04/13 11:22:45;;;;;;;;;;;;;;;;;;5051202;28;19983;-61
2023/04/13 11:25:12;;;;;;;;;;;;;;;;;;5046623;28;19920;-61
2023/04/13 11:27:39;;;;;;;;;;;;;;;;;;5050795;28;19921;-63
2023/04/13 11:30:06;;;;;;;;;;;;;;;;;;5047129;28;19920;-65
2023/04/13 11:32:33;;;;;;;;;;;;;;;;;;5046750;28;19967;-63
2023/04/13 11:35:00;;;;;;;;;;;;;;;;;;5045176;28;19999;-64
2023/04/13 11:37:27;;;;;;;;;;;;;;;;;;5050449;28;19986;-63
2023/04/13 11:39:55;;;;;;;;;;;;;;;;;;5050519;28;20379;-64
2023/04/13 11:42:22;;;;;;;;;;;;;;;;;;5044459;28;20007;-62
2023/04/13 11:44:50;;;;;;;;;;;;;;;;;;5046335;28;19925;-62
2023/04/13 11:47:16;;;;;;;;;;;;;;;;;;5050659;28;19924;-62
2023/04/13 11:49:46;;;;;;;;;;;;;;;;;;5048545;28;19920;-60
2023/04/13 11:52:14;;;;;;;;;;;;;;;;;;5052309;28;20405;-62
2023/04/13 11:54:42;;;;;;;;;;;;;;;;;;5047797;28;20024;-61
2023/04/13 11:57:09;;;;;;;;;;;;;;;;;;5050378;28;19920;-60
2023/04/13 11:59:37;;;;;;;;;;;;;;;;;;5050740;28;20335;-62
2023/04/13 12:02:05;;;;;;;;;;;;;;;;;;5049635;28;19950;-61
2023/04/13 12:04:32;;;;;;;;;;;;;;;;;;5053868;28;20048;-62
2023/04/13 12:06:59;;;;;;;;;;;;;;;;;;5049926;28;19979;-61
2023/04/13 12:09:26;;;;;;;;;;;;;;;;;;5050944;28;20023;-62
2023/04/13 12:11:53;;;;;;;;;;;;;;;;;;5049241;28;19921;-62
2023/04/13 12:14:21;;;;;;;;;;;;;;;;;;5049202;28;19928;-62
2023/04/13 12:16:47;;;;;;;;;;;;;;;;;;5051248;28;19935;-62
2023/04/13 12:19:14;;;;;;;;;;;;;;;;;;5052127;28;19974;-62
2023/04/13 12:21:41;;;;;;;;;;;;;;;;;;5050836;28;19974;-63
2023/04/13 12:24:08;;;;;;;;;;;;;;;;;;5052727;28;20437;-63
2023/04/13 12:26:36;;;;;;;;;;;;;;;;;;5049965;28;19927;-63
2023/04/13 12:29:03;;;;;;;;;;;;;;;;;;5053248;28;20600;-62
2023/04/13 12:31:29;;;;;;;;;;;;;;;;;;5049211;28;19921;-64
2023/04/13 12:33:56;;;;;;;;;;;;;;;;;;5049314;28;20006;-63
2023/04/13 12:36:27;;;;;;;;;;;;;;;;;;5047747;28;19924;-61
2023/04/13 12:38:54;;;;;;;;;;;;;;;;;;5053847;28;19967;-61
2023/04/13 12:41:20;;;;;;;;;;;;;;;;;;5052009;28;19920;-61
2023/04/13 12:43:47;;;;;;;;;;;;;;;;;;5055482;28;20481;-60
2023/04/13 12:46:14;;;;;;;;;;;;;;;;;;5048342;28;19925;-59
2023/04/13 12:48:41;;;;;;;;;;;;;;;;;;5052908;28;19920;-59
2023/04/13 12:51:08;;;;;;;;;;;;;;;;;;5048267;28;19979;-59
2023/04/13 12:53:35;;;;;;;;;;;;;;;;;;5049404;28;19920;-63
2023/04/13 12:56:02;;;;;;;;;;;;;;;;;;5051757;28;19963;-66
2023/04/13 12:58:29;;;;;;;;;;;;;;;;;;5050241;28;20375;-59
2023/04/13 13:00:56;;;;;;;;;;;;;;;;;;5048793;28;19921;-64
2023/04/13 13:03:23;;;;;;;;;;;;;;;;;;5046851;28;20372;-61
2023/04/13 13:05:50;;;;;;;;;;;;;;;;;;5052791;28;19929;-63
2023/04/13 13:08:17;;;;;;;;;;;;;;;;;;5046817;28;19920;-62
2023/04/13 13:10:44;;;;;;;;;;;;;;;;;;5048362;28;20027;-63
2023/04/13 13:13:11;;;;;;;;;;;;;;;;;;5047298;28;20415;-62
2023/04/13 13:15:38;;;;;;;;;;;;;;;;;;5046297;28;20346;-62
2023/04/13 13:18:07;;;;;;;;;;;;;;;;;;5050117;28;19921;-63
2023/04/13 13:20:39;;;;;;;;;;;;;;;;;;5046188;28;19928;-62
2023/04/13 13:23:06;;;;;;;;;;;;;;;;;;5046978;28;19920;-63
2023/04/13 13:25:35;;;;;;;;;;;;;;;;;;5047341;28;19921;-63
2023/04/13 13:28:07;;;;;;;;;;;;;;;;;;5048913;28;19925;-63
2023/04/13 13:30:34;;;;;;;;;;;;;;;;;;5045188;28;19968;-64
2023/04/13 13:33:01;;;;;;;;;;;;;;;;;;5050836;28;20008;-64
2023/04/13 13:35:27;;;;;;;;;;;;;;;;;;5051086;28;20386;-62
2023/04/13 13:37:54;;;;;;;;;;;;;;;;;;5051846;28;20827;-62
2023/04/13 13:40:21;;;;;;;;;;;;;;;;;;5047664;28;19921;-65
2023/04/13 13:42:48;;;;;;;;;;;;;;;;;;5051487;28;19932;-65
2023/04/13 13:45:15;;;;;;;;;;;;;;;;;;5048693;28;19990;-65
2023/04/13 13:47:42;;;;;;;;;;;;;;;;;;5048535;28;20012;-66
2023/04/13 13:50:09;;;;;;;;;;;;;;;;;;5051122;28;19928;-65
2023/04/13 13:52:36;;;;;;;;;;;;;;;;;;5051723;28;19920;-65
2023/04/13 13:55:03;;;;;;;;;;;;;;;;;;5052448;28;19929;-65
2023/04/13 13:57:30;;;;;;;;;;;;;;;;;;5048117;28;19925;-65
2023/04/13 13:59:57;;;;;;;;;;;;;;;;;;5044462;28;19971;-64
2023/04/13 14:02:24;;;;;;;;;;;;;;;;;;5052297;28;19920;-65
2023/04/13 14:04:50;;;;;;;;;;;;;;;;;;5051766;28;20371;-65
2023/04/13 14:07:18;;;;;;;;;;;;;;;;;;5051818;28;19974;-65
2023/04/13 14:09:45;;;;;;;;;;;;;;;;;;5048107;28;19920;-65
2023/04/13 14:12:11;;;;;;;;;;;;;;;;;;5047783;28;19920;-65
2023/04/13 14:14:38;;;;;;;;;;;;;;;;;;5048780;28;19967;-65
2023/04/13 14:17:05;;;;;;;;;;;;;;;;;;5050981;28;19921;-65
2023/04/13 14:19:33;;;;;;;;;;;;;;;;;;5052096;28;19928;-65
2023/04/13 14:22:00;;;;;;;;;;;;;;;;;;5051506;28;19924;-65
2023/04/13 14:24:27;;;;;;;;;;;;;;;;;;5050479;28;19921;-65
2023/04/13 14:26:53;;;;;;;;;;;;;;;;;;5049669;28;19920;-65
2023/04/13 14:29:21;;;;;;;;;;;;;;;;;;5050538;28;19921;-65
2023/04/13 14:31:47;;;;;;;;;;;;;;;;;;5048635;28;19921;-65
2023/04/13 14:34:14;;;;;;;;;;;;;;;;;;5047847;28;19920;-65
2023/04/13 14:36:43;;;;;;;;;;;;;;;;;;5052016;28;19921;-65
2023/04/13 14:39:10;;;;;;;;;;;;;;;;;;5051488;28;20444;-65
2023/04/13 14:41:37;;;;;;;;;;;;;;;;;;5048551;28;19927;-65
2023/04/13 14:44:04;;;;;;;;;;;;;;;;;;5047470;28;19975;-64
2023/04/13 14:46:31;;;;;;;;;;;;;;;;;;5038865;28;20003;-64
2023/04/13 14:48:58;;;;;;;;;;;;;;;;;;5050895;28;19928;-65
2023/04/13 14:51:26;;;;;;;;;;;;;;;;;;5051950;28;19951;-65
2023/04/13 14:53:55;;;;;;;;;;;;;;;;;;5052078;28;20385;-65
2023/04/13 14:56:22;;;;;;;;;;;;;;;;;;5047347;28;19950;-66
2023/04/13 14:58:49;;;;;;;;;;;;;;;;;;5052109;28;19931;-66
2023/04/13 15:01:16;;;;;;;;;;;;;;;;;;5046881;28;20410;-65
2023/04/13 15:03:43;;;;;;;;;;;;;;;;;;5051850;28;19921;-65
2023/04/13 15:06:10;;;;;;;;;;;;;;;;;;5051292;28;19928;-66
2023/04/13 15:08:37;;;;;;;;;;;;;;;;;;5051939;28;19998;-65
2023/04/13 15:11:05;;;;;;;;;;;;;;;;;;5046981;28;19967;-65
2023/04/13 15:13:31;;;;;;;;;;;;;;;;;;5051855;28;20016;-65
2023/04/13 15:15:58;;;;;;;;;;;;;;;;;;5043760;28;19925;-65
2023/04/13 15:18:25;;;;;;;;;;;;;;;;;;5051747;28;19920;-65
2023/04/13 15:20:52;;;;;;;;;;;;;;;;;;5046366;28;19998;-65
2023/04/13 15:23:19;;;;;;;;;;;;;;;;;;5049097;28;19921;-66
2023/04/13 15:25:46;;;;;;;;;;;;;;;;;;5055459;28;20354;-65
2023/04/13 15:28:13;;;;;;;;;;;;;;;;;;5049975;28;20399;-65
2023/04/13 15:30:41;;;;;;;;;;;;;;;;;;5051272;28;20391;-65
2023/04/13 15:33:08;;;;;;;;;;;;;;;;;;5055019;28;19967;-65
2023/04/13 15:35:35;;;;;;;;;;;;;;;;;;5055540;28;19966;-65
2023/04/13 15:38:02;;;;;;;;;;;;;;;;;;5055619;28;19928;-65
2023/04/13 15:40:31;;;;;;;;;;;;;;;;;;5052309;28;19925;-65
2023/04/13 15:42:58;;;;;;;;;;;;;;;;;;5055521;28;19921;-65
2023/04/13 15:45:25;;;;;;;;;;;;;;;;;;5050588;28;20034;-65
2023/04/13 15:47:52;;;;;;;;;;;;;;;;;;5055280;28;19920;-66
2023/04/13 15:50:18;;;;;;;;;;;;;;;;;;5056224;28;19962;-65
2023/04/13 15:52:45;;;;;;;;;;;;;;;;;;5059082;28;19920;-66
2023/04/13 15:55:12;;;;;;;;;;;;;;;;;;5051754;28;19921;-65
2023/04/13 15:57:39;;;;;;;;;;;;;;;;;;5055540;28;19963;-65
2023/04/13 16:00:07;;;;;;;;;;;;;;;;;;5047474;28;19940;-67
2023/04/13 16:02:34;;;;;;;;;;;;;;;;;;5054794;28;19943;-65
2023/04/13 16:05:01;;;;;;;;;;;;;;;;;;5051419;28;19928;-65
2023/04/13 16:07:27;;;;;;;;;;;;;;;;;;5054429;28;20457;-65
2023/04/13 16:09:56;;;;;;;;;;;;;;;;;;5050333;28;19947;-65
2023/04/13 16:12:25;;;;;;;;;;;;;;;;;;5054269;28;19967;-65
2023/04/13 16:14:54;;;;;;;;;;;;;;;;;;5048833;28;19927;-65
2023/04/13 16:17:29;;;;;;;;;;;;;;;;;;5053707;28;20307;-65
2023/04/13 16:19:56;;;;;;;;;;;;;;;;;;5054307;28;19974;-66
2023/04/13 16:22:23;;;;;;;;;;;;;;;;;;5053924;28;19921;-66
2023/04/13 16:24:50;;;;;;;;;;;;;;;;;;5049924;28;19921;-66
2023/04/13 16:27:16;;;;;;;;;;;;;;;;;;5054107;28;19985;-64
2023/04/13 16:29:44;;;;;;;;;;;;;;;;;;5050364;28;20380;-65
2023/04/13 16:32:10;;;;;;;;;;;;;;;;;;5053831;28;19924;-66
2023/04/13 16:34:38;;;;;;;;;;;;;;;;;;5052606;28;19921;-65
2023/04/13 16:37:04;;;;;;;;;;;;;;;;;;5054016;28;19921;-65
2023/04/13 16:39:31;;;;;;;;;;;;;;;;;;5052181;28;19928;-65
2023/04/13 16:41:58;;;;;;;;;;;;;;;;;;5037462;28;19982;-66
2023/04/13 16:44:25;;;;;;;;;;;;;;;;;;5048980;28;19928;-64